sensor_id;sensor_type;location;lat;lon;timestamp;P1;durP1;ratioP1;P2;durP2;ratioP2
68449;SDS011;55434;39.570;2.652;2022-07-06T00:01:30;7.78;;;2.25;;
68449;SDS011;55434;39.570;2.652;2022-07-06T00:03:56;8.05;;;1.73;;
68449;SDS011;55434;39.570;2.652;2022-07-06T00:06:22;7.50;;;1.83;;
68449;SDS011;55434;39.570;2.652;2022-07-06T00:08:48;11.70;;;1.98;;
68449;SDS011;55434;39.570;2.652;2022-07-06T00:11:14;6.43;;;1.80;;
68449;SDS011;55434;39.570;2.652;2022-07-06T00:13:40;8.60;;;2.00;;
68449;SDS011;55434;39.570;2.652;2022-07-06T00:16:05;9.45;;;1.80;;
68449;SDS011;55434;39.570;2.652;2022-07-06T00:18:31;7.73;;;1.70;;
68449;SDS011;55434;39.570;2.652;2022-07-06T00:20:56;9.82;;;2.00;;
68449;SDS011;55434;39.570;2.652;2022-07-06T00:23:22;8.03;;;1.50;;
68449;SDS011;55434;39.570;2.652;2022-07-06T00:25:48;7.03;;;1.60;;
68449;SDS011;55434;39.570;2.652;2022-07-06T00:28:13;8.75;;;1.98;;
68449;SDS011;55434;39.570;2.652;2022-07-06T00:30:39;7.63;;;1.60;;
68449;SDS011;55434;39.570;2.652;2022-07-06T00:33:05;7.47;;;1.63;;
68449;SDS011;55434;39.570;2.652;2022-07-06T00:35:31;7.77;;;1.50;;
68449;SDS011;55434;39.570;2.652;2022-07-06T00:37:56;6.63;;;1.70;;
68449;SDS011;55434;39.570;2.652;2022-07-06T00:40:22;5.50;;;1.50;;
68449;SDS011;55434;39.570;2.652;2022-07-06T00:42:48;9.75;;;1.70;;
68449;SDS011;55434;39.570;2.652;2022-07-06T00:45:14;6.63;;;1.60;;
68449;SDS011;55434;39.570;2.652;2022-07-06T00:47:41;6.95;;;1.60;;
68449;SDS011;55434;39.570;2.652;2022-07-06T00:50:07;9.10;;;1.52;;
68449;SDS011;55434;39.570;2.652;2022-07-06T00:52:43;8.10;;;1.88;;
68449;SDS011;55434;39.570;2.652;2022-07-06T00:55:10;7.13;;;2.10;;
68449;SDS011;55434;39.570;2.652;2022-07-06T00:57:37;6.78;;;2.15;;
68449;SDS011;55434;39.570;2.652;2022-07-06T01:00:04;7.43;;;1.88;;
68449;SDS011;55434;39.570;2.652;2022-07-06T01:02:32;7.30;;;1.90;;
68449;SDS011;55434;39.570;2.652;2022-07-06T01:04:58;9.05;;;1.60;;
68449;SDS011;55434;39.570;2.652;2022-07-06T01:07:24;7.70;;;2.00;;
68449;SDS011;55434;39.570;2.652;2022-07-06T01:09:50;6.32;;;1.70;;
68449;SDS011;55434;39.570;2.652;2022-07-06T01:12:16;7.87;;;2.00;;
68449;SDS011;55434;39.570;2.652;2022-07-06T01:14:42;7.95;;;1.80;;
68449;SDS011;55434;39.570;2.652;2022-07-06T01:17:08;8.15;;;1.98;;
68449;SDS011;55434;39.570;2.652;2022-07-06T01:19:34;10.32;;;2.15;;
68449;SDS011;55434;39.570;2.652;2022-07-06T01:22:00;7.67;;;2.30;;
68449;SDS011;55434;39.570;2.652;2022-07-06T01:24:26;9.70;;;2.07;;
68449;SDS011;55434;39.570;2.652;2022-07-06T01:26:52;9.10;;;1.92;;
68449;SDS011;55434;39.570;2.652;2022-07-06T01:29:17;8.80;;;1.90;;
68449;SDS011;55434;39.570;2.652;2022-07-06T01:31:46;12.00;;;2.13;;
68449;SDS011;55434;39.570;2.652;2022-07-06T01:34:13;8.70;;;1.90;;
68449;SDS011;55434;39.570;2.652;2022-07-06T01:36:40;7.43;;;1.80;;
68449;SDS011;55434;39.570;2.652;2022-07-06T01:39:07;8.73;;;2.13;;
68449;SDS011;55434;39.570;2.652;2022-07-06T01:41:33;7.50;;;1.90;;
68449;SDS011;55434;39.570;2.652;2022-07-06T01:43:59;10.93;;;2.00;;
68449;SDS011;55434;39.570;2.652;2022-07-06T01:46:24;7.38;;;2.00;;
68449;SDS011;55434;39.570;2.652;2022-07-06T01:48:50;7.10;;;1.70;;
68449;SDS011;55434;39.570;2.652;2022-07-06T01:51:15;6.80;;;1.80;;
68449;SDS011;55434;39.570;2.652;2022-07-06T01:53:41;14.25;;;2.28;;
68449;SDS011;55434;39.570;2.652;2022-07-06T01:56:07;9.87;;;1.67;;
68449;SDS011;55434;39.570;2.652;2022-07-06T01:58:33;12.77;;;2.25;;
68449;SDS011;55434;39.570;2.652;2022-07-06T02:00:58;14.13;;;2.50;;
68449;SDS011;55434;39.570;2.652;2022-07-06T02:03:24;14.00;;;3.17;;
68449;SDS011;55434;39.570;2.652;2022-07-06T02:05:49;13.52;;;2.70;;
68449;SDS011;55434;39.570;2.652;2022-07-06T02:08:15;17.87;;;2.67;;
68449;SDS011;55434;39.570;2.652;2022-07-06T02:10:40;16.00;;;2.93;;
68449;SDS011;55434;39.570;2.652;2022-07-06T02:13:06;14.15;;;2.40;;
68449;SDS011;55434;39.570;2.652;2022-07-06T02:15:32;20.63;;;2.93;;
68449;SDS011;55434;39.570;2.652;2022-07-06T02:17:57;19.35;;;2.95;;
68449;SDS011;55434;39.570;2.652;2022-07-06T02:20:23;13.90;;;2.90;;
68449;SDS011;55434;39.570;2.652;2022-07-06T02:22:48;13.47;;;2.60;;
68449;SDS011;55434;39.570;2.652;2022-07-06T02:25:14;17.27;;;3.03;;
68449;SDS011;55434;39.570;2.652;2022-07-06T02:27:39;12.03;;;3.00;;
68449;SDS011;55434;39.570;2.652;2022-07-06T02:30:05;13.97;;;2.70;;
68449;SDS011;55434;39.570;2.652;2022-07-06T02:32:31;16.95;;;2.55;;
68449;SDS011;55434;39.570;2.652;2022-07-06T02:34:56;15.13;;;2.67;;
68449;SDS011;55434;39.570;2.652;2022-07-06T02:37:23;16.80;;;2.53;;
68449;SDS011;55434;39.570;2.652;2022-07-06T02:39:49;13.73;;;2.75;;
68449;SDS011;55434;39.570;2.652;2022-07-06T02:42:15;14.37;;;2.67;;
68449;SDS011;55434;39.570;2.652;2022-07-06T02:44:40;18.47;;;3.50;;
68449;SDS011;55434;39.570;2.652;2022-07-06T02:47:06;13.32;;;2.38;;
68449;SDS011;55434;39.570;2.652;2022-07-06T02:49:32;9.70;;;2.17;;
68449;SDS011;55434;39.570;2.652;2022-07-06T02:51:58;15.13;;;3.30;;
68449;SDS011;55434;39.570;2.652;2022-07-06T02:54:23;15.17;;;3.27;;
68449;SDS011;55434;39.570;2.652;2022-07-06T02:56:49;16.17;;;3.05;;
68449;SDS011;55434;39.570;2.652;2022-07-06T02:59:18;20.23;;;3.10;;
68449;SDS011;55434;39.570;2.652;2022-07-06T03:01:44;28.17;;;3.50;;
68449;SDS011;55434;39.570;2.652;2022-07-06T03:04:09;16.57;;;3.10;;
68449;SDS011;55434;39.570;2.652;2022-07-06T03:06:35;20.80;;;3.15;;
68449;SDS011;55434;39.570;2.652;2022-07-06T03:09:00;12.67;;;3.40;;
68449;SDS011;55434;39.570;2.652;2022-07-06T03:11:26;18.83;;;3.65;;
68449;SDS011;55434;39.570;2.652;2022-07-06T03:13:52;17.57;;;3.43;;
68449;SDS011;55434;39.570;2.652;2022-07-06T03:16:17;18.50;;;3.13;;
68449;SDS011;55434;39.570;2.652;2022-07-06T03:18:43;17.80;;;3.20;;
68449;SDS011;55434;39.570;2.652;2022-07-06T03:21:09;11.47;;;2.70;;
68449;SDS011;55434;39.570;2.652;2022-07-06T03:23:34;13.33;;;2.80;;
68449;SDS011;55434;39.570;2.652;2022-07-06T03:26:00;13.77;;;3.30;;
68449;SDS011;55434;39.570;2.652;2022-07-06T03:28:25;10.70;;;2.60;;
68449;SDS011;55434;39.570;2.652;2022-07-06T03:30:51;14.43;;;3.00;;
68449;SDS011;55434;39.570;2.652;2022-07-06T03:33:16;12.27;;;2.53;;
68449;SDS011;55434;39.570;2.652;2022-07-06T03:35:42;13.83;;;2.60;;
68449;SDS011;55434;39.570;2.652;2022-07-06T03:38:07;12.05;;;2.53;;
68449;SDS011;55434;39.570;2.652;2022-07-06T03:40:33;18.13;;;3.10;;
68449;SDS011;55434;39.570;2.652;2022-07-06T03:42:58;15.47;;;3.37;;
68449;SDS011;55434;39.570;2.652;2022-07-06T03:45:24;14.93;;;2.50;;
68449;SDS011;55434;39.570;2.652;2022-07-06T03:47:50;13.43;;;2.60;;
68449;SDS011;55434;39.570;2.652;2022-07-06T03:50:15;19.90;;;3.30;;
68449;SDS011;55434;39.570;2.652;2022-07-06T03:52:41;18.20;;;3.00;;
68449;SDS011;55434;39.570;2.652;2022-07-06T03:55:10;9.57;;;2.73;;
68449;SDS011;55434;39.570;2.652;2022-07-06T03:57:37;17.80;;;2.83;;
68449;SDS011;55434;39.570;2.652;2022-07-06T04:00:04;14.02;;;3.15;;
68449;SDS011;55434;39.570;2.652;2022-07-06T04:02:30;15.52;;;3.42;;
68449;SDS011;55434;39.570;2.652;2022-07-06T04:04:55;18.20;;;3.57;;
68449;SDS011;55434;39.570;2.652;2022-07-06T04:07:21;13.95;;;3.28;;
68449;SDS011;55434;39.570;2.652;2022-07-06T04:09:46;13.10;;;2.97;;
68449;SDS011;55434;39.570;2.652;2022-07-06T04:12:12;13.60;;;2.93;;
68449;SDS011;55434;39.570;2.652;2022-07-06T04:14:37;19.42;;;3.38;;
68449;SDS011;55434;39.570;2.652;2022-07-06T04:17:04;14.37;;;2.97;;
68449;SDS011;55434;39.570;2.652;2022-07-06T04:19:49;19.45;;;3.10;;
68449;SDS011;55434;39.570;2.652;2022-07-06T04:22:15;14.10;;;3.28;;
68449;SDS011;55434;39.570;2.652;2022-07-06T04:24:41;20.57;;;4.03;;
68449;SDS011;55434;39.570;2.652;2022-07-06T04:27:07;13.45;;;3.05;;
68449;SDS011;55434;39.570;2.652;2022-07-06T04:29:32;15.83;;;3.03;;
68449;SDS011;55434;39.570;2.652;2022-07-06T04:31:58;15.13;;;3.13;;
68449;SDS011;55434;39.570;2.652;2022-07-06T04:34:23;11.23;;;2.50;;
68449;SDS011;55434;39.570;2.652;2022-07-06T04:36:49;14.17;;;2.73;;
68449;SDS011;55434;39.570;2.652;2022-07-06T04:39:14;15.00;;;3.40;;
68449;SDS011;55434;39.570;2.652;2022-07-06T04:41:40;12.87;;;3.00;;
68449;SDS011;55434;39.570;2.652;2022-07-06T04:44:05;13.23;;;3.20;;
68449;SDS011;55434;39.570;2.652;2022-07-06T04:46:31;13.20;;;3.03;;
68449;SDS011;55434;39.570;2.652;2022-07-06T04:48:56;14.25;;;2.95;;
68449;SDS011;55434;39.570;2.652;2022-07-06T04:51:22;14.43;;;3.57;;
68449;SDS011;55434;39.570;2.652;2022-07-06T04:53:47;14.63;;;3.90;;
68449;SDS011;55434;39.570;2.652;2022-07-06T04:56:13;13.48;;;3.25;;
68449;SDS011;55434;39.570;2.652;2022-07-06T04:58:38;13.40;;;3.27;;
68449;SDS011;55434;39.570;2.652;2022-07-06T05:01:04;16.23;;;3.93;;
68449;SDS011;55434;39.570;2.652;2022-07-06T05:03:29;17.67;;;3.40;;
68449;SDS011;55434;39.570;2.652;2022-07-06T05:05:55;18.73;;;3.50;;
68449;SDS011;55434;39.570;2.652;2022-07-06T05:08:20;16.37;;;3.43;;
68449;SDS011;55434;39.570;2.652;2022-07-06T05:10:47;14.57;;;3.10;;
68449;SDS011;55434;39.570;2.652;2022-07-06T05:13:13;13.50;;;3.00;;
68449;SDS011;55434;39.570;2.652;2022-07-06T05:15:38;19.77;;;3.83;;
68449;SDS011;55434;39.570;2.652;2022-07-06T05:18:04;15.47;;;3.07;;
68449;SDS011;55434;39.570;2.652;2022-07-06T05:20:29;14.85;;;3.15;;
68449;SDS011;55434;39.570;2.652;2022-07-06T05:22:56;16.98;;;3.15;;
68449;SDS011;55434;39.570;2.652;2022-07-06T05:25:21;16.77;;;3.20;;
68449;SDS011;55434;39.570;2.652;2022-07-06T05:27:47;13.30;;;3.17;;
68449;SDS011;55434;39.570;2.652;2022-07-06T05:30:12;18.00;;;3.50;;
68449;SDS011;55434;39.570;2.652;2022-07-06T05:32:40;13.80;;;2.90;;
68449;SDS011;55434;39.570;2.652;2022-07-06T05:35:06;14.82;;;3.40;;
68449;SDS011;55434;39.570;2.652;2022-07-06T05:37:32;15.13;;;3.20;;
68449;SDS011;55434;39.570;2.652;2022-07-06T05:39:58;17.47;;;3.60;;
68449;SDS011;55434;39.570;2.652;2022-07-06T05:42:23;20.50;;;3.67;;
68449;SDS011;55434;39.570;2.652;2022-07-06T05:44:49;18.95;;;3.20;;
68449;SDS011;55434;39.570;2.652;2022-07-06T05:47:14;16.93;;;3.43;;
68449;SDS011;55434;39.570;2.652;2022-07-06T05:49:58;14.15;;;3.45;;
68449;SDS011;55434;39.570;2.652;2022-07-06T05:52:40;20.42;;;3.97;;
68449;SDS011;55434;39.570;2.652;2022-07-06T05:55:07;16.05;;;3.13;;
68449;SDS011;55434;39.570;2.652;2022-07-06T05:57:33;15.70;;;2.93;;
68449;SDS011;55434;39.570;2.652;2022-07-06T05:59:59;10.75;;;2.97;;
68449;SDS011;55434;39.570;2.652;2022-07-06T06:02:24;13.43;;;3.10;;
68449;SDS011;55434;39.570;2.652;2022-07-06T06:04:50;10.50;;;3.60;;
68449;SDS011;55434;39.570;2.652;2022-07-06T06:07:15;11.65;;;3.20;;
68449;SDS011;55434;39.570;2.652;2022-07-06T06:09:41;13.27;;;2.80;;
68449;SDS011;55434;39.570;2.652;2022-07-06T06:12:06;10.93;;;2.60;;
68449;SDS011;55434;39.570;2.652;2022-07-06T06:14:32;10.02;;;2.60;;
68449;SDS011;55434;39.570;2.652;2022-07-06T06:16:58;12.30;;;3.00;;
68449;SDS011;55434;39.570;2.652;2022-07-06T06:19:24;10.18;;;2.10;;
68449;SDS011;55434;39.570;2.652;2022-07-06T06:21:49;10.32;;;2.40;;
68449;SDS011;55434;39.570;2.652;2022-07-06T06:24:16;11.20;;;2.43;;
68449;SDS011;55434;39.570;2.652;2022-07-06T06:26:42;11.38;;;2.10;;
68449;SDS011;55434;39.570;2.652;2022-07-06T06:29:08;7.13;;;2.10;;
68449;SDS011;55434;39.570;2.652;2022-07-06T06:31:42;8.77;;;2.30;;
68449;SDS011;55434;39.570;2.652;2022-07-06T06:34:08;9.75;;;2.30;;
68449;SDS011;55434;39.570;2.652;2022-07-06T06:36:34;7.53;;;2.10;;
68449;SDS011;55434;39.570;2.652;2022-07-06T06:38:59;8.23;;;1.93;;
68449;SDS011;55434;39.570;2.652;2022-07-06T06:41:26;12.10;;;2.15;;
68449;SDS011;55434;39.570;2.652;2022-07-06T06:43:52;10.27;;;1.87;;
68449;SDS011;55434;39.570;2.652;2022-07-06T06:46:17;7.20;;;1.92;;
68449;SDS011;55434;39.570;2.652;2022-07-06T06:48:43;8.80;;;1.70;;
68449;SDS011;55434;39.570;2.652;2022-07-06T06:51:08;6.77;;;2.03;;
68449;SDS011;55434;39.570;2.652;2022-07-06T06:53:34;10.30;;;2.13;;
68449;SDS011;55434;39.570;2.652;2022-07-06T06:55:59;6.37;;;1.63;;
68449;SDS011;55434;39.570;2.652;2022-07-06T06:58:25;7.73;;;1.77;;
68449;SDS011;55434;39.570;2.652;2022-07-06T07:00:50;9.40;;;1.73;;
68449;SDS011;55434;39.570;2.652;2022-07-06T07:03:16;8.23;;;1.65;;
68449;SDS011;55434;39.570;2.652;2022-07-06T07:05:42;6.90;;;1.50;;
68449;SDS011;55434;39.570;2.652;2022-07-06T07:08:07;10.50;;;1.70;;
68449;SDS011;55434;39.570;2.652;2022-07-06T07:10:33;10.23;;;1.47;;
68449;SDS011;55434;39.570;2.652;2022-07-06T07:12:58;22.80;;;2.10;;
68449;SDS011;55434;39.570;2.652;2022-07-06T07:15:24;6.30;;;1.60;;
68449;SDS011;55434;39.570;2.652;2022-07-06T07:17:50;8.17;;;1.43;;
68449;SDS011;55434;39.570;2.652;2022-07-06T07:20:15;8.43;;;1.60;;
68449;SDS011;55434;39.570;2.652;2022-07-06T07:22:41;7.97;;;1.57;;
68449;SDS011;55434;39.570;2.652;2022-07-06T07:25:06;10.30;;;1.70;;
68449;SDS011;55434;39.570;2.652;2022-07-06T07:27:32;8.02;;;1.50;;
68449;SDS011;55434;39.570;2.652;2022-07-06T07:29:58;10.53;;;1.70;;
68449;SDS011;55434;39.570;2.652;2022-07-06T07:32:23;13.95;;;1.73;;
68449;SDS011;55434;39.570;2.652;2022-07-06T07:34:49;8.90;;;2.27;;
68449;SDS011;55434;39.570;2.652;2022-07-06T07:37:15;6.28;;;1.65;;
68449;SDS011;55434;39.570;2.652;2022-07-06T07:39:41;9.17;;;1.23;;
68449;SDS011;55434;39.570;2.652;2022-07-06T07:42:07;7.13;;;1.73;;
68449;SDS011;55434;39.570;2.652;2022-07-06T07:44:33;6.47;;;1.80;;
68449;SDS011;55434;39.570;2.652;2022-07-06T07:46:58;8.88;;;2.03;;
68449;SDS011;55434;39.570;2.652;2022-07-06T07:49:24;12.70;;;2.00;;
68449;SDS011;55434;39.570;2.652;2022-07-06T07:51:49;16.43;;;3.00;;
68449;SDS011;55434;39.570;2.652;2022-07-06T07:54:17;8.13;;;1.92;;
68449;SDS011;55434;39.570;2.652;2022-07-06T07:56:43;6.93;;;1.30;;
68449;SDS011;55434;39.570;2.652;2022-07-06T07:59:10;8.57;;;2.30;;
68449;SDS011;55434;39.570;2.652;2022-07-06T08:01:36;8.55;;;1.52;;
68449;SDS011;55434;39.570;2.652;2022-07-06T08:04:02;9.10;;;1.73;;
68449;SDS011;55434;39.570;2.652;2022-07-06T08:06:28;14.80;;;3.10;;
68449;SDS011;55434;39.570;2.652;2022-07-06T08:08:54;7.32;;;1.70;;
68449;SDS011;55434;39.570;2.652;2022-07-06T08:11:19;11.17;;;2.23;;
68449;SDS011;55434;39.570;2.652;2022-07-06T08:13:45;17.90;;;2.67;;
68449;SDS011;55434;39.570;2.652;2022-07-06T08:16:12;14.63;;;2.47;;
68449;SDS011;55434;39.570;2.652;2022-07-06T08:18:38;18.33;;;2.80;;
68449;SDS011;55434;39.570;2.652;2022-07-06T08:21:04;20.15;;;3.08;;
68449;SDS011;55434;39.570;2.652;2022-07-06T08:23:30;10.75;;;2.20;;
68449;SDS011;55434;39.570;2.652;2022-07-06T08:25:56;7.67;;;1.70;;
68449;SDS011;55434;39.570;2.652;2022-07-06T08:28:21;11.80;;;2.60;;
68449;SDS011;55434;39.570;2.652;2022-07-06T08:30:47;7.70;;;2.10;;
68449;SDS011;55434;39.570;2.652;2022-07-06T08:33:13;13.83;;;2.70;;
68449;SDS011;55434;39.570;2.652;2022-07-06T08:35:39;11.20;;;2.67;;
68449;SDS011;55434;39.570;2.652;2022-07-06T08:38:04;20.27;;;3.15;;
68449;SDS011;55434;39.570;2.652;2022-07-06T08:40:32;11.00;;;1.80;;
68449;SDS011;55434;39.570;2.652;2022-07-06T08:43:02;10.27;;;2.10;;
68449;SDS011;55434;39.570;2.652;2022-07-06T08:45:35;12.90;;;2.33;;
68449;SDS011;55434;39.570;2.652;2022-07-06T08:48:05;9.55;;;2.10;;
68449;SDS011;55434;39.570;2.652;2022-07-06T08:50:32;7.63;;;2.20;;
68449;SDS011;55434;39.570;2.652;2022-07-06T08:52:58;14.10;;;2.42;;
68449;SDS011;55434;39.570;2.652;2022-07-06T08:55:27;10.55;;;2.05;;
68449;SDS011;55434;39.570;2.652;2022-07-06T08:57:54;9.20;;;2.10;;
68449;SDS011;55434;39.570;2.652;2022-07-06T09:00:21;15.00;;;2.65;;
68449;SDS011;55434;39.570;2.652;2022-07-06T09:02:48;16.40;;;2.42;;
68449;SDS011;55434;39.570;2.652;2022-07-06T09:05:16;7.90;;;1.80;;
68449;SDS011;55434;39.570;2.652;2022-07-06T09:07:48;8.93;;;2.22;;
68449;SDS011;55434;39.570;2.652;2022-07-06T09:10:17;8.50;;;1.77;;
68449;SDS011;55434;39.570;2.652;2022-07-06T09:12:44;5.32;;;1.73;;
68449;SDS011;55434;39.570;2.652;2022-07-06T09:15:09;8.40;;;2.13;;
68449;SDS011;55434;39.570;2.652;2022-07-06T09:17:39;8.60;;;2.05;;
68449;SDS011;55434;39.570;2.652;2022-07-06T09:20:09;12.98;;;2.20;;
68449;SDS011;55434;39.570;2.652;2022-07-06T09:22:38;9.35;;;2.20;;
68449;SDS011;55434;39.570;2.652;2022-07-06T09:25:05;8.13;;;2.38;;
68449;SDS011;55434;39.570;2.652;2022-07-06T09:27:40;7.15;;;1.55;;
68449;SDS011;55434;39.570;2.652;2022-07-06T09:30:08;9.48;;;1.90;;
68449;SDS011;55434;39.570;2.652;2022-07-06T09:32:38;10.02;;;2.08;;
68449;SDS011;55434;39.570;2.652;2022-07-06T09:35:08;7.40;;;1.98;;
68449;SDS011;55434;39.570;2.652;2022-07-06T09:37:45;8.95;;;2.10;;
68449;SDS011;55434;39.570;2.652;2022-07-06T09:40:16;10.25;;;1.90;;
68449;SDS011;55434;39.570;2.652;2022-07-06T09:42:43;12.95;;;2.72;;
68449;SDS011;55434;39.570;2.652;2022-07-06T09:45:09;8.80;;;2.17;;
68449;SDS011;55434;39.570;2.652;2022-07-06T09:47:35;9.70;;;2.47;;
68449;SDS011;55434;39.570;2.652;2022-07-06T09:50:04;11.43;;;2.42;;
68449;SDS011;55434;39.570;2.652;2022-07-06T09:52:33;10.32;;;2.45;;
68449;SDS011;55434;39.570;2.652;2022-07-06T09:55:00;8.60;;;2.78;;
68449;SDS011;55434;39.570;2.652;2022-07-06T09:57:31;7.82;;;2.42;;
68449;SDS011;55434;39.570;2.652;2022-07-06T09:59:57;12.00;;;2.30;;
68449;SDS011;55434;39.570;2.652;2022-07-06T10:02:23;7.07;;;1.50;;
68449;SDS011;55434;39.570;2.652;2022-07-06T10:04:51;6.37;;;2.07;;
68449;SDS011;55434;39.570;2.652;2022-07-06T10:07:19;6.60;;;1.67;;
68449;SDS011;55434;39.570;2.652;2022-07-06T10:09:49;7.50;;;2.00;;
68449;SDS011;55434;39.570;2.652;2022-07-06T10:12:16;9.40;;;2.08;;
68449;SDS011;55434;39.570;2.652;2022-07-06T10:14:43;13.27;;;2.60;;
68449;SDS011;55434;39.570;2.652;2022-07-06T10:17:09;12.77;;;2.33;;
68449;SDS011;55434;39.570;2.652;2022-07-06T10:19:35;10.07;;;2.25;;
68449;SDS011;55434;39.570;2.652;2022-07-06T10:22:02;7.78;;;2.08;;
68449;SDS011;55434;39.570;2.652;2022-07-06T10:24:29;7.90;;;2.03;;
68449;SDS011;55434;39.570;2.652;2022-07-06T10:26:58;10.45;;;2.40;;
68449;SDS011;55434;39.570;2.652;2022-07-06T10:29:24;7.60;;;1.67;;
68449;SDS011;55434;39.570;2.652;2022-07-06T10:31:52;10.32;;;1.92;;
68449;SDS011;55434;39.570;2.652;2022-07-06T10:34:22;13.95;;;2.85;;
68449;SDS011;55434;39.570;2.652;2022-07-06T10:36:49;13.17;;;2.47;;
68449;SDS011;55434;39.570;2.652;2022-07-06T10:39:36;13.98;;;2.97;;
68449;SDS011;55434;39.570;2.652;2022-07-06T10:50:51;8.40;;;3.30;;
68449;SDS011;55434;39.570;2.652;2022-07-06T10:55:51;12.60;;;3.78;;
68449;SDS011;55434;39.570;2.652;2022-07-06T11:01:02;12.02;;;4.50;;
68449;SDS011;55434;39.570;2.652;2022-07-06T11:03:32;16.20;;;5.10;;
68449;SDS011;55434;39.570;2.652;2022-07-06T11:05:59;8.70;;;4.15;;
68449;SDS011;55434;39.570;2.652;2022-07-06T11:08:42;10.32;;;4.60;;
68449;SDS011;55434;39.570;2.652;2022-07-06T11:19:18;9.73;;;3.67;;
68449;SDS011;55434;39.570;2.652;2022-07-06T11:21:55;13.82;;;4.72;;
68449;SDS011;55434;39.570;2.652;2022-07-06T11:24:26;13.43;;;4.90;;
68449;SDS011;55434;39.570;2.652;2022-07-06T11:26:54;9.43;;;4.65;;
68449;SDS011;55434;39.570;2.652;2022-07-06T11:29:22;7.57;;;3.97;;
68449;SDS011;55434;39.570;2.652;2022-07-06T11:31:50;12.48;;;5.97;;
68449;SDS011;55434;39.570;2.652;2022-07-06T11:34:19;14.57;;;5.50;;
68449;SDS011;55434;39.570;2.652;2022-07-06T11:36:46;13.63;;;5.05;;
68449;SDS011;55434;39.570;2.652;2022-07-06T11:39:13;15.55;;;6.22;;
68449;SDS011;55434;39.570;2.652;2022-07-06T11:41:39;9.43;;;5.03;;
68449;SDS011;55434;39.570;2.652;2022-07-06T11:44:06;12.32;;;5.75;;
68449;SDS011;55434;39.570;2.652;2022-07-06T11:46:33;12.93;;;5.75;;
68449;SDS011;55434;39.570;2.652;2022-07-06T11:49:02;12.65;;;5.03;;
68449;SDS011;55434;39.570;2.652;2022-07-06T11:51:30;17.42;;;6.40;;
68449;SDS011;55434;39.570;2.652;2022-07-06T11:53:58;10.33;;;3.83;;
68449;SDS011;55434;39.570;2.652;2022-07-06T11:56:25;8.02;;;4.38;;
68449;SDS011;55434;39.570;2.652;2022-07-06T11:59:01;9.00;;;5.68;;
68449;SDS011;55434;39.570;2.652;2022-07-06T12:01:27;10.93;;;5.00;;
68449;SDS011;55434;39.570;2.652;2022-07-06T12:03:57;11.00;;;6.45;;
68449;SDS011;55434;39.570;2.652;2022-07-06T12:06:25;10.73;;;5.30;;
68449;SDS011;55434;39.570;2.652;2022-07-06T12:08:52;11.77;;;5.38;;
68449;SDS011;55434;39.570;2.652;2022-07-06T12:11:26;13.40;;;5.93;;
68449;SDS011;55434;39.570;2.652;2022-07-06T12:13:54;12.40;;;5.97;;
68449;SDS011;55434;39.570;2.652;2022-07-06T12:16:21;9.88;;;5.93;;
68449;SDS011;55434;39.570;2.652;2022-07-06T12:18:49;15.97;;;6.27;;
68449;SDS011;55434;39.570;2.652;2022-07-06T12:21:17;11.68;;;6.45;;
68449;SDS011;55434;39.570;2.652;2022-07-06T12:23:51;11.88;;;6.15;;
68449;SDS011;55434;39.570;2.652;2022-07-06T12:26:18;13.35;;;6.30;;
68449;SDS011;55434;39.570;2.652;2022-07-06T12:28:46;11.00;;;5.40;;
68449;SDS011;55434;39.570;2.652;2022-07-06T12:31:37;12.17;;;4.93;;
68449;SDS011;55434;39.570;2.652;2022-07-06T12:34:13;9.48;;;5.95;;
68449;SDS011;55434;39.570;2.652;2022-07-06T12:37:08;10.15;;;4.70;;
68449;SDS011;55434;39.570;2.652;2022-07-06T12:39:44;5.82;;;3.53;;
68449;SDS011;55434;39.570;2.652;2022-07-06T12:42:12;12.80;;;4.22;;
68449;SDS011;55434;39.570;2.652;2022-07-06T12:44:52;13.23;;;3.83;;
68449;SDS011;55434;39.570;2.652;2022-07-06T12:47:21;10.15;;;4.13;;
68449;SDS011;55434;39.570;2.652;2022-07-06T12:50:06;15.40;;;3.33;;
68449;SDS011;55434;39.570;2.652;2022-07-06T12:52:33;12.70;;;3.40;;
68449;SDS011;55434;39.570;2.652;2022-07-06T12:55:00;11.40;;;3.47;;
68449;SDS011;55434;39.570;2.652;2022-07-06T12:57:27;7.90;;;3.00;;
68449;SDS011;55434;39.570;2.652;2022-07-06T13:02:23;12.13;;;3.70;;
68449;SDS011;55434;39.570;2.652;2022-07-06T13:04:56;12.10;;;3.72;;
68449;SDS011;55434;39.570;2.652;2022-07-06T13:07:24;7.78;;;2.90;;
68449;SDS011;55434;39.570;2.652;2022-07-06T13:09:50;11.85;;;3.42;;
68449;SDS011;55434;39.570;2.652;2022-07-06T13:12:16;15.40;;;3.55;;
68449;SDS011;55434;39.570;2.652;2022-07-06T13:14:42;9.85;;;3.78;;
68449;SDS011;55434;39.570;2.652;2022-07-06T13:17:07;8.70;;;3.50;;
68449;SDS011;55434;39.570;2.652;2022-07-06T13:19:33;10.95;;;4.95;;
68449;SDS011;55434;39.570;2.652;2022-07-06T13:22:05;13.45;;;4.80;;
68449;SDS011;55434;39.570;2.652;2022-07-06T13:24:33;9.98;;;4.63;;
68449;SDS011;55434;39.570;2.652;2022-07-06T13:26:59;11.68;;;4.10;;
68449;SDS011;55434;39.570;2.652;2022-07-06T13:29:25;9.13;;;3.53;;
68449;SDS011;55434;39.570;2.652;2022-07-06T13:31:50;8.80;;;3.53;;
68449;SDS011;55434;39.570;2.652;2022-07-06T13:34:16;12.38;;;6.57;;
68449;SDS011;55434;39.570;2.652;2022-07-06T13:36:42;7.80;;;3.80;;
68449;SDS011;55434;39.570;2.652;2022-07-06T13:39:08;11.97;;;4.20;;
68449;SDS011;55434;39.570;2.652;2022-07-06T13:41:35;10.23;;;4.47;;
68449;SDS011;55434;39.570;2.652;2022-07-06T13:44:01;12.45;;;4.10;;
68449;SDS011;55434;39.570;2.652;2022-07-06T13:49:39;9.73;;;4.72;;
68449;SDS011;55434;39.570;2.652;2022-07-06T13:56:11;14.18;;;5.18;;
68449;SDS011;55434;39.570;2.652;2022-07-06T13:58:44;14.82;;;5.20;;
68449;SDS011;55434;39.570;2.652;2022-07-06T14:01:21;10.13;;;5.57;;
68449;SDS011;55434;39.570;2.652;2022-07-06T14:03:51;10.75;;;5.32;;
68449;SDS011;55434;39.570;2.652;2022-07-06T14:06:32;12.30;;;7.20;;
68449;SDS011;55434;39.570;2.652;2022-07-06T14:09:03;8.43;;;4.72;;
68449;SDS011;55434;39.570;2.652;2022-07-06T14:11:31;9.95;;;5.05;;
68449;SDS011;55434;39.570;2.652;2022-07-06T14:14:04;9.00;;;4.30;;
68449;SDS011;55434;39.570;2.652;2022-07-06T14:16:33;8.38;;;4.65;;
68449;SDS011;55434;39.570;2.652;2022-07-06T14:19:02;8.73;;;4.20;;
68449;SDS011;55434;39.570;2.652;2022-07-06T14:21:28;12.35;;;4.70;;
68449;SDS011;55434;39.570;2.652;2022-07-06T14:23:56;12.95;;;3.97;;
68449;SDS011;55434;39.570;2.652;2022-07-06T14:26:24;8.98;;;4.05;;
68449;SDS011;55434;39.570;2.652;2022-07-06T14:28:50;8.00;;;3.97;;
68449;SDS011;55434;39.570;2.652;2022-07-06T14:31:16;14.00;;;4.07;;
68449;SDS011;55434;39.570;2.652;2022-07-06T14:33:43;12.50;;;4.60;;
68449;SDS011;55434;39.570;2.652;2022-07-06T14:36:11;11.40;;;4.75;;
68449;SDS011;55434;39.570;2.652;2022-07-06T14:38:39;10.18;;;5.03;;
68449;SDS011;55434;39.570;2.652;2022-07-06T14:41:05;8.33;;;4.80;;
68449;SDS011;55434;39.570;2.652;2022-07-06T14:43:31;9.68;;;4.82;;
68449;SDS011;55434;39.570;2.652;2022-07-06T14:45:57;14.80;;;4.70;;
68449;SDS011;55434;39.570;2.652;2022-07-06T14:48:25;13.52;;;4.70;;
68449;SDS011;55434;39.570;2.652;2022-07-06T14:50:50;7.15;;;4.70;;
68449;SDS011;55434;39.570;2.652;2022-07-06T14:53:17;11.80;;;5.27;;
68449;SDS011;55434;39.570;2.652;2022-07-06T14:55:42;12.60;;;5.82;;
68449;SDS011;55434;39.570;2.652;2022-07-06T14:58:08;7.83;;;4.40;;
68449;SDS011;55434;39.570;2.652;2022-07-06T15:00:33;12.60;;;5.18;;
68449;SDS011;55434;39.570;2.652;2022-07-06T15:02:59;13.07;;;5.07;;
68449;SDS011;55434;39.570;2.652;2022-07-06T15:05:25;12.03;;;4.93;;
68449;SDS011;55434;39.570;2.652;2022-07-06T15:07:50;10.77;;;5.20;;
68449;SDS011;55434;39.570;2.652;2022-07-06T15:10:16;8.27;;;4.47;;
68449;SDS011;55434;39.570;2.652;2022-07-06T15:12:42;8.15;;;4.53;;